Time,TemperatureF,DewpointF,PressureIn,WindDirection,WindDirectionDegrees,WindSpeedMPH,WindSpeedGustMPH,Humidity,HourlyPrecipIn,Conditions,Clouds,dailyrainin,SolarRadiationWatts/m^2,SoftwareType,DateUTC
2013-05-29 00:02:00,67.0,64.0,-100.00,NE,38,0.0,0.0,90,0.00,,,0.00,0.000000,,2013-05-29 04:02:00,
2013-05-29 00:23:00,65.0,63.0,-100.00,NNE,30,0.0,0.0,93,0.00,,,0.00,0.000000,,2013-05-29 04:23:00,
2013-05-29 00:33:00,65.0,63.0,-100.00,NNE,30,0.0,0.0,93,0.00,,,0.00,0.000000,,2013-05-29 04:33:00,
2013-05-29 00:42:00,65.0,63.0,-100.00,NNE,30,0.0,0.0,93,0.00,,,0.00,0.000000,,2013-05-29 04:42:00,
2013-05-29 00:53:00,65.0,63.0,-100.00,NNE,30,0.0,0.0,93,0.00,,,0.00,0.000000,,2013-05-29 04:53:00,
2013-05-29 01:03:00,65.0,63.0,-100.00,NNE,30,0.0,0.0,93,0.00,,,0.00,0.000000,,2013-05-29 05:03:00,
2013-05-29 01:22:00,64.0,62.0,-100.00,North,359,0.0,0.0,94,0.00,,,0.00,0.000000,,2013-05-29 05:22:00,
2013-05-29 01:33:00,64.0,62.0,-100.00,North,359,0.0,0.0,94,0.00,,,0.00,0.000000,,2013-05-29 05:33:00,
2013-05-29 01:42:00,64.0,62.0,-100.00,North,359,0.0,0.0,94,0.00,,,0.00,0.000000,,2013-05-29 05:42:00,
2013-05-29 01:52:00,64.0,62.0,-100.00,North,359,0.0,0.0,94,0.00,,,0.00,0.000000,,2013-05-29 05:52:00,
2013-05-29 02:02:00,64.0,62.0,-100.00,North,359,0.0,0.0,94,0.00,,,0.00,0.000000,,2013-05-29 06:02:00,
2013-05-29 02:22:00,63.0,61.0,-100.00,NNE,15,0.0,0.0,94,0.00,,,0.00,0.000000,,2013-05-29 06:22:00,
2013-05-29 02:32:00,63.0,61.0,-100.00,NNE,15,0.0,0.0,94,0.00,,,0.00,0.000000,,2013-05-29 06:32:00,
2013-05-29 02:42:00,63.0,61.0,-100.00,NNE,15,0.0,0.0,94,0.00,,,0.00,0.000000,,2013-05-29 06:42:00,
2013-05-29 02:52:00,63.0,61.0,-100.00,NNE,15,0.0,0.0,94,0.00,,,0.00,0.000000,,2013-05-29 06:52:00,
2013-05-29 03:01:00,63.0,61.0,-100.00,NNE,15,0.0,0.0,94,0.00,,,0.00,0.000000,,2013-05-29 07:01:00,
2013-05-29 03:22:00,63.0,62.0,-100.00,NNW,331,0.0,0.0,95,0.00,,,0.00,0.000000,,2013-05-29 07:22:00,
2013-05-29 03:34:00,63.0,62.0,-100.00,NNW,331,0.0,0.0,95,0.00,,,0.00,0.000000,,2013-05-29 07:34:00,
2013-05-29 03:42:00,63.0,62.0,-100.00,NNW,331,0.0,0.0,95,0.00,,,0.00,0.000000,,2013-05-29 07:42:00,
2013-05-29 03:53:00,63.0,62.0,-100.00,NNW,331,0.0,0.0,95,0.00,,,0.00,0.000000,,2013-05-29 07:53:00,
2013-05-29 04:02:00,63.0,62.0,-100.00,NNW,331,0.0,0.0,95,0.00,,,0.00,0.000000,,2013-05-29 08:02:00,
2013-05-29 04:22:00,63.0,62.0,-100.00,NNW,342,0.0,0.0,95,0.00,,,0.00,0.000000,,2013-05-29 08:22:00,
2013-05-29 04:32:00,63.0,62.0,-100.00,NNW,342,0.0,0.0,95,0.00,,,0.00,0.000000,,2013-05-29 08:32:00,
2013-05-29 04:42:00,63.0,62.0,-100.00,NNW,342,0.0,0.0,95,0.00,,,0.00,0.000000,,2013-05-29 08:42:00,
2013-05-29 04:52:00,63.0,62.0,-100.00,NNW,342,0.0,0.0,95,0.00,,,0.00,0.000000,,2013-05-29 08:52:00,
2013-05-29 05:01:00,63.0,62.0,-100.00,NNW,342,0.0,0.0,95,0.00,,,0.00,0.000000,,2013-05-29 09:01:00,
2013-05-29 05:22:00,62.0,61.0,-100.00,ESE,122,0.0,0.0,95,0.00,,,0.00,0.000000,,2013-05-29 09:22:00,
2013-05-29 05:33:00,62.0,61.0,-100.00,ESE,122,0.0,0.0,95,0.00,,,0.00,0.000000,,2013-05-29 09:33:00,
2013-05-29 05:42:00,62.0,61.0,-100.00,ESE,122,0.0,0.0,95,0.00,,,0.00,0.000000,,2013-05-29 09:42:00,
2013-05-29 05:53:00,62.0,61.0,-100.00,ESE,122,0.0,0.0,95,0.00,,,0.00,0.000000,,2013-05-29 09:53:00,
2013-05-29 06:03:00,62.0,61.0,-100.00,ESE,122,0.0,0.0,95,0.00,,,0.00,0.000000,,2013-05-29 10:03:00,
2013-05-29 06:22:00,61.0,60.0,-100.00,East,91,0.0,0.0,95,0.00,,,0.00,0.000000,,2013-05-29 10:22:00,
2013-05-29 06:33:00,61.0,60.0,-100.00,East,91,0.0,0.0,95,0.00,,,0.00,0.000000,,2013-05-29 10:33:00,
2013-05-29 06:42:00,61.0,60.0,-100.00,East,91,0.0,0.0,95,0.00,,,0.00,0.000000,,2013-05-29 10:42:00,
2013-05-29 06:53:00,61.0,60.0,-100.00,East,91,0.0,0.0,95,0.00,,,0.00,0.000000,,2013-05-29 10:53:00,
2013-05-29 07:02:00,61.0,60.0,-100.00,East,91,0.0,0.0,95,0.00,,,0.00,0.000000,,2013-05-29 11:02:00,
2013-05-29 07:22:00,60.0,59.0,-100.00,NE,45,0.0,0.0,95,0.00,,,0.00,9.000000,,2013-05-29 11:22:00,
2013-05-29 07:32:00,60.0,59.0,-100.00,NE,45,0.0,0.0,95,0.00,,,0.00,9.000000,,2013-05-29 11:32:00,
2013-05-29 07:42:00,60.0,59.0,-100.00,NE,45,0.0,0.0,95,0.00,,,0.00,9.000000,,2013-05-29 11:42:00,
2013-05-29 07:52:00,60.0,59.0,-100.00,NE,45,0.0,0.0,95,0.00,,,0.00,9.000000,,2013-05-29 11:52:00,
2013-05-29 08:01:00,60.0,59.0,-100.00,NE,45,0.0,0.0,95,0.00,,,0.00,9.000000,,2013-05-29 12:01:00,
2013-05-29 08:22:00,69.0,67.0,-100.00,NNW,338,0.0,0.0,94,0.00,,,0.00,139.000000,,2013-05-29 12:22:00,
2013-05-29 08:32:00,69.0,67.0,-100.00,NNW,338,0.0,0.0,94,0.00,,,0.00,139.000000,,2013-05-29 12:32:00,
2013-05-29 08:42:00,69.0,67.0,-100.00,NNW,338,0.0,0.0,94,0.00,,,0.00,139.000000,,2013-05-29 12:42:00,
2013-05-29 08:52:00,69.0,67.0,-100.00,NNW,338,0.0,0.0,94,0.00,,,0.00,139.000000,,2013-05-29 12:52:00,
2013-05-29 09:02:00,69.0,67.0,-100.00,NNW,338,0.0,0.0,94,0.00,,,0.00,139.000000,,2013-05-29 13:02:00,
2013-05-29 09:22:00,79.0,70.0,-100.00,East,100,5.0,9.0,73,0.00,,,0.00,356.000000,,2013-05-29 13:22:00,
2013-05-29 09:32:00,79.0,70.0,-100.00,East,100,5.0,9.0,73,0.00,,,0.00,356.000000,,2013-05-29 13:32:00,
2013-05-29 09:42:00,79.0,70.0,-100.00,East,100,5.0,9.0,73,0.00,,,0.00,356.000000,,2013-05-29 13:42:00,
2013-05-29 09:53:00,79.0,70.0,-100.00,East,100,5.0,9.0,73,0.00,,,0.00,356.000000,,2013-05-29 13:53:00,
2013-05-29 10:02:00,79.0,70.0,-100.00,East,100,5.0,9.0,73,0.00,,,0.00,356.000000,,2013-05-29 14:02:00,
2013-05-29 10:22:00,81.0,69.0,-100.00,East,92,5.0,11.0,67,0.00,,,0.00,477.000000,,2013-05-29 14:22:00,
2013-05-29 10:32:00,81.0,69.0,-100.00,East,92,5.0,11.0,67,0.00,,,0.00,477.000000,,2013-05-29 14:32:00,
2013-05-29 10:42:00,81.0,69.0,-100.00,East,92,5.0,11.0,67,0.00,,,0.00,477.000000,,2013-05-29 14:42:00,
2013-05-29 10:52:00,81.0,69.0,-100.00,East,92,5.0,11.0,67,0.00,,,0.00,477.000000,,2013-05-29 14:52:00,
2013-05-29 11:01:00,81.0,69.0,-100.00,East,92,5.0,11.0,67,0.00,,,0.00,477.000000,,2013-05-29 15:01:00,
2013-05-29 11:22:00,84.0,68.0,-100.00,East,98,5.0,10.0,58,0.00,,,0.00,733.000000,,2013-05-29 15:22:00,
2013-05-29 11:33:00,84.0,68.0,-100.00,East,98,5.0,10.0,58,0.00,,,0.00,733.000000,,2013-05-29 15:33:00,
2013-05-29 11:43:00,84.0,68.0,-100.00,East,98,5.0,10.0,58,0.00,,,0.00,733.000000,,2013-05-29 15:43:00,
2013-05-29 11:53:00,84.0,68.0,-100.00,East,98,5.0,10.0,58,0.00,,,0.00,733.000000,,2013-05-29 15:53:00,
2013-05-29 12:03:00,84.0,68.0,-100.00,East,98,5.0,10.0,58,0.00,,,0.00,733.000000,,2013-05-29 16:03:00,
2013-05-29 12:22:00,83.0,68.0,-100.00,ESE,118,5.0,11.0,60,0.00,,,0.00,564.000000,,2013-05-29 16:22:00,
2013-05-29 12:33:00,83.0,68.0,-100.00,ESE,118,5.0,11.0,60,0.00,,,0.00,564.000000,,2013-05-29 16:33:00,
2013-05-29 12:42:00,83.0,68.0,-100.00,ESE,118,5.0,11.0,60,0.00,,,0.00,564.000000,,2013-05-29 16:42:00,
2013-05-29 12:52:00,83.0,68.0,-100.00,ESE,118,5.0,11.0,60,0.00,,,0.00,564.000000,,2013-05-29 16:52:00,
2013-05-29 13:02:00,83.0,68.0,-100.00,ESE,118,5.0,11.0,60,0.00,,,0.00,564.000000,,2013-05-29 17:02:00,
2013-05-29 13:22:00,82.0,65.0,-100.00,ESE,111,6.0,12.0,57,0.00,,,0.00,658.000000,,2013-05-29 17:22:00,
2013-05-29 13:32:00,82.0,65.0,-100.00,ESE,111,6.0,12.0,57,0.00,,,0.00,658.000000,,2013-05-29 17:32:00,
2013-05-29 13:43:00,82.0,65.0,-100.00,ESE,111,6.0,12.0,57,0.00,,,0.00,658.000000,,2013-05-29 17:43:00,
2013-05-29 13:52:00,82.0,65.0,-100.00,ESE,111,6.0,12.0,57,0.00,,,0.00,658.000000,,2013-05-29 17:52:00,
2013-05-29 14:01:00,82.0,65.0,-100.00,ESE,111,6.0,12.0,57,0.00,,,0.00,658.000000,,2013-05-29 18:01:00,
2013-05-29 14:22:00,85.0,68.0,-100.00,SE,124,6.0,12.0,56,0.00,,,0.00,849.000000,,2013-05-29 18:22:00,
2013-05-29 14:32:00,85.0,68.0,-100.00,SE,124,6.0,12.0,56,0.00,,,0.00,849.000000,,2013-05-29 18:32:00,
2013-05-29 14:42:00,85.0,68.0,-100.00,SE,124,6.0,12.0,56,0.00,,,0.00,849.000000,,2013-05-29 18:42:00,
2013-05-29 14:52:00,85.0,68.0,-100.00,SE,124,6.0,12.0,56,0.00,,,0.00,849.000000,,2013-05-29 18:52:00,
2013-05-29 15:02:00,85.0,68.0,-100.00,SE,124,6.0,12.0,56,0.00,,,0.00,849.000000,,2013-05-29 19:02:00,
2013-05-29 15:22:00,86.0,70.0,-100.00,SE,124,4.0,13.0,59,0.00,,,0.00,768.000000,,2013-05-29 19:22:00,
2013-05-29 15:32:00,86.0,70.0,-100.00,SE,124,4.0,13.0,59,0.00,,,0.00,768.000000,,2013-05-29 19:32:00,
2013-05-29 15:44:00,86.0,70.0,-100.00,SE,124,4.0,13.0,59,0.00,,,0.00,768.000000,,2013-05-29 19:44:00,
2013-05-29 15:53:00,86.0,70.0,-100.00,SE,124,4.0,13.0,59,0.00,,,0.00,768.000000,,2013-05-29 19:53:00,
2013-05-29 16:03:00,86.0,70.0,-100.00,SE,124,4.0,13.0,59,0.00,,,0.00,768.000000,,2013-05-29 20:03:00,
2013-05-29 16:23:00,83.0,66.0,-100.00,ESE,117,6.0,14.0,57,0.00,,,0.00,548.000000,,2013-05-29 20:23:00,
2013-05-29 16:33:00,83.0,66.0,-100.00,ESE,117,6.0,14.0,57,0.00,,,0.00,548.000000,,2013-05-29 20:33:00,
2013-05-29 16:42:00,83.0,66.0,-100.00,ESE,117,6.0,14.0,57,0.00,,,0.00,548.000000,,2013-05-29 20:42:00,
2013-05-29 16:53:00,83.0,66.0,-100.00,ESE,117,6.0,14.0,57,0.00,,,0.00,548.000000,,2013-05-29 20:53:00,
2013-05-29 17:02:00,83.0,66.0,-100.00,ESE,117,6.0,14.0,57,0.00,,,0.00,548.000000,,2013-05-29 21:02:00,
2013-05-29 17:22:00,83.0,69.0,-100.00,ESE,116,5.0,14.0,63,0.00,,,0.00,448.000000,,2013-05-29 21:22:00,
2013-05-29 17:33:00,83.0,69.0,-100.00,ESE,116,5.0,14.0,63,0.00,,,0.00,448.000000,,2013-05-29 21:33:00,
2013-05-29 17:44:00,83.0,69.0,-100.00,ESE,116,5.0,14.0,63,0.00,,,0.00,448.000000,,2013-05-29 21:44:00,
2013-05-29 17:53:00,83.0,69.0,-100.00,ESE,116,5.0,14.0,63,0.00,,,0.00,448.000000,,2013-05-29 21:53:00,
2013-05-29 18:03:00,83.0,69.0,-100.00,ESE,116,5.0,14.0,63,0.00,,,0.00,448.000000,,2013-05-29 22:03:00,
2013-05-29 18:23:00,81.0,68.0,-100.00,ESE,108,6.0,14.0,65,0.00,,,0.00,412.000000,,2013-05-29 22:23:00,
2013-05-29 18:34:00,81.0,68.0,-100.00,ESE,108,6.0,14.0,65,0.00,,,0.00,412.000000,,2013-05-29 22:34:00,
2013-05-29 18:42:00,81.0,68.0,-100.00,ESE,108,6.0,14.0,65,0.00,,,0.00,412.000000,,2013-05-29 22:42:00,
2013-05-29 18:53:00,81.0,68.0,-100.00,ESE,108,6.0,14.0,65,0.00,,,0.00,412.000000,,2013-05-29 22:53:00,
2013-05-29 19:02:00,81.0,68.0,-100.00,ESE,108,6.0,14.0,65,0.00,,,0.00,412.000000,,2013-05-29 23:02:00,
2013-05-29 19:22:00,80.0,69.0,-100.00,East,89,6.0,12.0,70,0.00,,,0.00,217.000000,,2013-05-29 23:22:00,
2013-05-29 19:33:00,80.0,69.0,-100.00,East,89,6.0,12.0,70,0.00,,,0.00,217.000000,,2013-05-29 23:33:00,
2013-05-29 19:42:00,80.0,69.0,-100.00,East,89,6.0,12.0,70,0.00,,,0.00,217.000000,,2013-05-29 23:42:00,
2013-05-29 19:53:00,80.0,69.0,-100.00,East,89,6.0,12.0,70,0.00,,,0.00,217.000000,,2013-05-29 23:53:00,
2013-05-29 20:02:00,80.0,69.0,-100.00,East,89,6.0,12.0,70,0.00,,,0.00,217.000000,,2013-05-30 00:02:00,
2013-05-29 20:22:00,77.0,68.0,-100.00,East,99,5.0,14.0,73,0.00,,,0.00,68.000000,,2013-05-30 00:22:00,
2013-05-29 20:32:00,77.0,68.0,-100.00,East,99,5.0,14.0,73,0.00,,,0.00,68.000000,,2013-05-30 00:32:00,
2013-05-29 20:42:00,77.0,68.0,-100.00,East,99,5.0,14.0,73,0.00,,,0.00,68.000000,,2013-05-30 00:42:00,
2013-05-29 20:52:00,77.0,68.0,-100.00,East,99,5.0,14.0,73,0.00,,,0.00,68.000000,,2013-05-30 00:52:00,
2013-05-29 21:01:00,77.0,68.0,-100.00,East,99,5.0,14.0,73,0.00,,,0.00,68.000000,,2013-05-30 01:01:00,
2013-05-29 21:22:00,75.0,68.0,-100.00,East,94,2.0,11.0,80,0.00,,,0.00,5.000000,,2013-05-30 01:22:00,
2013-05-29 21:32:00,75.0,68.0,-100.00,East,94,2.0,11.0,80,0.00,,,0.00,5.000000,,2013-05-30 01:32:00,
2013-05-29 21:42:00,75.0,68.0,-100.00,East,94,2.0,11.0,80,0.00,,,0.00,5.000000,,2013-05-30 01:42:00,
2013-05-29 21:52:00,75.0,68.0,-100.00,East,94,2.0,11.0,80,0.00,,,0.00,5.000000,,2013-05-30 01:52:00,
2013-05-29 22:01:00,75.0,68.0,-100.00,East,94,2.0,11.0,80,0.00,,,0.00,5.000000,,2013-05-30 02:01:00,
2013-05-29 22:22:00,73.0,69.0,-100.00,East,88,2.0,6.0,86,0.00,,,0.00,0.000000,,2013-05-30 02:22:00,
2013-05-29 22:32:00,73.0,69.0,-100.00,East,88,2.0,6.0,86,0.00,,,0.00,0.000000,,2013-05-30 02:32:00,
2013-05-29 22:42:00,73.0,69.0,-100.00,East,88,2.0,6.0,86,0.00,,,0.00,0.000000,,2013-05-30 02:42:00,
2013-05-29 22:52:00,73.0,69.0,-100.00,East,88,2.0,6.0,86,0.00,,,0.00,0.000000,,2013-05-30 02:52:00,
2013-05-29 23:02:00,73.0,69.0,-100.00,East,88,2.0,6.0,86,0.00,,,0.00,0.000000,,2013-05-30 03:02:00,
2013-05-29 23:22:00,71.0,68.0,-100.00,ENE,62,1.0,4.0,90,0.00,,,0.00,0.000000,,2013-05-30 03:22:00,
2013-05-29 23:33:00,71.0,68.0,-100.00,ENE,62,1.0,4.0,90,0.00,,,0.00,0.000000,,2013-05-30 03:33:00,
2013-05-29 23:43:00,71.0,68.0,-100.00,ENE,62,1.0,4.0,90,0.00,,,0.00,0.000000,,2013-05-30 03:43:00,
2013-05-29 23:53:00,71.0,68.0,-100.00,ENE,62,1.0,4.0,90,0.00,,,0.00,0.000000,,2013-05-30 03:53:00,